Time;durP1;ratioP1;P1;durP2;ratioP2;P2;SDS_P1;SDS_P2;PMS_P1;PMS_P2;Temp;Humidity;BMP_temperature;BMP_pressure;BME280_temperature;BME280_humidity;BME280_pressure;Samples;Min_cycle;Max_cycle;Signal;HPM_P1;HPM_P2
2021/05/20 00:00:17;;;;;;;18.67;11.98;;;;;;;7.74;100.00;101602.59;6247342;28;20052;-77
2021/05/20 00:03:18;;;;;;;17.48;11.93;;;;;;;7.68;100.00;101602.78;6247836;28;20049;-78
2021/05/20 00:06:20;;;;;;;16.55;12.00;;;;;;;7.60;100.00;101607.38;6247964;28;20389;-77
2021/05/20 00:09:21;;;;;;;22.02;12.82;;;;;;;7.56;100.00;101610.97;6249796;28;20053;-77
2021/05/20 00:12:22;;;;;;;16.52;11.60;;;;;;;7.57;100.00;101608.28;6252527;28;20049;-76
2021/05/20 00:15:22;;;;;;;22.52;13.20;;;;;;;7.48;100.00;101613.78;6252514;28;20604;-78
2021/05/20 00:18:23;;;;;;;18.95;12.30;;;;;;;7.45;100.00;101611.25;6253127;28;20085;-77
2021/05/20 00:21:25;;;;;;;17.08;11.75;;;;;;;7.42;100.00;101620.94;6252950;28;20060;-78
2021/05/20 00:24:26;;;;;;;19.00;10.60;;;;;;;7.43;100.00;101620.03;6253260;28;20045;-77
2021/05/20 00:27:27;;;;;;;19.80;13.10;;;;;;;7.41;100.00;101616.59;6253161;28;20057;-78
2021/05/20 00:30:27;;;;;;;17.63;12.43;;;;;;;7.42;100.00;101616.56;6253053;28;20519;-78
2021/05/20 00:33:28;;;;;;;19.60;13.27;;;;;;;7.37;100.00;101627.13;6252701;28;20123;-78
2021/05/20 00:36:30;;;;;;;18.42;12.70;;;;;;;7.38;100.00;101628.00;6252675;28;20045;-78
2021/05/20 00:39:31;;;;;;;18.85;12.82;;;;;;;7.30;100.00;101630.78;6252941;28;20049;-78
2021/05/20 00:42:32;;;;;;;18.92;12.75;;;;;;;7.29;100.00;101629.09;6252979;28;20042;-77
2021/05/20 00:45:32;;;;;;;21.17;14.70;;;;;;;7.28;100.00;101632.59;6253108;28;20053;-77
2021/05/20 00:48:33;;;;;;;20.77;14.70;;;;;;;7.35;100.00;101633.28;6252675;28;20110;-77
2021/05/20 00:51:35;;;;;;;24.05;15.43;;;;;;;7.37;100.00;101636.75;6252910;28;20049;-78
2021/05/20 00:54:36;;;;;;;18.88;14.23;;;;;;;7.37;100.00;101644.59;6252558;28;20052;-77
2021/05/20 00:57:37;;;;;;;23.02;15.32;;;;;;;7.35;100.00;101648.97;6252817;28;20045;-78
2021/05/20 01:00:39;;;;;;;22.15;14.75;;;;;;;7.32;100.00;101652.56;6252734;28;20061;-78
2021/05/20 01:03:40;;;;;;;20.75;14.13;;;;;;;7.26;100.00;101646.59;6251963;28;20045;-78
2021/05/20 01:06:42;;;;;;;19.05;14.27;;;;;;;7.26;100.00;101650.06;6252780;28;20055;-78
2021/05/20 01:09:43;;;;;;;22.48;15.63;;;;;;;7.25;100.00;101656.19;6252109;28;20459;-78
2021/05/20 01:12:44;;;;;;;23.60;16.67;;;;;;;7.24;100.00;101657.09;6252210;28;20053;-78
2021/05/20 01:15:44;;;;;;;27.90;17.52;;;;;;;7.29;100.00;101652.63;6252492;28;20056;-78
2021/05/20 01:18:45;;;;;;;23.42;16.48;;;;;;;7.30;100.00;101653.47;6252785;28;20052;-77
2021/05/20 01:21:47;;;;;;;26.00;16.73;;;;;;;7.29;100.00;101659.59;6250588;28;20503;-78
2021/05/20 01:24:48;;;;;;;22.80;15.93;;;;;;;7.24;100.00;101666.72;6251654;28;20056;-78
2021/05/20 01:27:51;;;;;;;26.67;17.15;;;;;;;7.20;100.00;101665.06;6252165;28;20049;-78
2021/05/20 01:30:52;;;;;;;23.45;15.40;;;;;;;7.13;100.00;101669.59;6252095;28;20072;-77
2021/05/20 01:33:53;;;;;;;21.75;15.27;;;;;;;7.09;100.00;101670.56;6251839;28;20068;-78
2021/05/20 01:36:55;;;;;;;22.20;15.05;;;;;;;7.10;100.00;101673.13;6251489;28;20084;-77
2021/05/20 01:39:55;;;;;;;19.33;13.75;;;;;;;7.09;100.00;101686.25;6251745;28;20519;-78
2021/05/20 01:42:56;;;;;;;23.98;16.00;;;;;;;7.07;100.00;101683.66;6251708;28;20045;-78
2021/05/20 01:45:58;;;;;;;26.05;16.88;;;;;;;7.05;100.00;101681.97;6252133;28;20053;-77
2021/05/20 01:48:59;;;;;;;26.67;18.00;;;;;;;7.02;100.00;101680.28;6251458;28;20049;-78
2021/05/20 01:52:01;;;;;;;24.65;17.52;;;;;;;6.99;100.00;101682.97;6259368;28;20102;-78
2021/05/20 01:55:02;;;;;;;28.50;18.08;;;;;;;6.99;100.00;101672.50;6267255;28;20040;-77
2021/05/20 01:58:02;;;;;;;28.20;17.17;;;;;;;7.01;100.00;101675.09;6275703;28;20052;-78
2021/05/20 02:01:04;;;;;;;23.67;16.70;;;;;;;6.96;100.00;101677.81;6276043;28;20064;-78
2021/05/20 02:04:05;;;;;;;28.55;17.95;;;;;;;6.92;100.00;101677.94;6267268;28;20048;-77
2021/05/20 02:07:07;;;;;;;25.40;17.73;;;;;;;6.89;100.00;101684.06;6276259;28;20053;-78
2021/05/20 02:10:08;;;;;;;26.45;17.52;;;;;;;6.86;100.00;101679.81;6275255;28;20508;-77
2021/05/20 02:13:09;;;;;;;26.38;17.60;;;;;;;6.85;100.00;101677.19;6275879;28;20045;-78
2021/05/20 02:16:10;;;;;;;23.20;15.88;;;;;;;6.82;100.00;101677.28;6275794;28;20048;-78
2021/05/20 02:19:11;;;;;;;25.73;16.20;;;;;;;6.77;100.00;101673.94;6274918;28;20102;-78
2021/05/20 02:22:13;;;;;;;23.00;15.85;;;;;;;6.73;100.00;101669.66;6273585;28;20456;-78
2021/05/20 02:25:14;;;;;;;25.30;15.13;;;;;;;6.68;100.00;101671.53;6273769;28;20049;-78
2021/05/20 02:28:15;;;;;;;26.90;16.73;;;;;;;6.64;100.00;101672.47;6274239;28;20048;-78
2021/05/20 02:31:16;;;;;;;26.65;14.98;;;;;;;6.56;100.00;101675.25;6272992;28;20107;-78
2021/05/20 02:34:17;;;;;;;23.98;14.80;;;;;;;6.51;100.00;101679.72;6273521;28;20045;-77
2021/05/20 02:37:19;;;;;;;24.08;14.60;;;;;;;6.47;100.00;101680.66;6273841;28;20064;-78
2021/05/20 02:40:21;;;;;;;22.73;15.15;;;;;;;6.44;100.00;101678.13;6273802;28;20049;-77
2021/05/20 02:43:21;;;;;;;17.52;12.18;;;;;;;6.38;100.00;101676.50;6273981;28;20048;-77
2021/05/20 02:46:22;;;;;;;22.27;14.57;;;;;;;6.31;100.00;101669.66;6274003;28;20079;-77
2021/05/20 02:49:23;;;;;;;21.77;15.13;;;;;;;6.28;100.00;101673.22;6273551;28;20502;-77
2021/05/20 02:52:25;;;;;;;20.83;14.20;;;;;;;6.28;100.00;101677.59;6273995;28;20044;-77
2021/05/20 02:55:27;;;;;;;27.58;14.82;;;;;;;6.29;100.00;101681.91;6274104;28;20076;-78
2021/05/20 02:58:28;;;;;;;24.10;14.25;;;;;;;6.24;100.00;101678.53;6273687;28;20056;-77
2021/05/20 03:01:29;;;;;;;22.80;14.02;;;;;;;6.18;100.00;101673.47;6273906;28;20411;-77
2021/05/20 03:04:29;;;;;;;21.33;13.77;;;;;;;6.17;100.00;101669.09;6273526;28;20049;-78
2021/05/20 03:07:31;;;;;;;22.55;14.90;;;;;;;6.11;100.00;101675.31;6273651;28;20071;-77
2021/05/20 03:10:32;;;;;;;24.75;15.45;;;;;;;6.13;100.00;101681.34;6274356;28;20052;-78
2021/05/20 03:13:33;;;;;;;23.65;15.73;;;;;;;6.15;100.00;101679.59;6274641;28;20124;-78
2021/05/20 03:16:34;;;;;;;27.33;16.75;;;;;;;6.08;100.00;101678.81;6274343;28;20136;-77
2021/05/20 03:19:35;;;;;;;27.77;17.88;;;;;;;6.09;100.00;101684.94;6273336;28;20060;-77
2021/05/20 03:22:38;;;;;;;57.75;19.60;;;;;;;6.05;100.00;101683.28;6273209;28;20053;-77
2021/05/20 03:25:39;;;;;;;38.63;18.38;;;;;;;6.07;100.00;101684.94;6274100;28;20052;-77
2021/05/20 03:28:40;;;;;;;51.25;18.10;;;;;;;6.01;100.00;101686.81;6273589;28;20049;-77
2021/05/20 03:31:41;;;;;;;46.10;18.30;;;;;;;6.02;100.00;101686.78;6273286;28;20408;-77
2021/05/20 03:34:41;;;;;;;56.88;19.40;;;;;;;5.99;100.00;101685.97;6273729;28;20053;-77
2021/05/20 03:37:43;;;;;;;37.25;16.70;;;;;;;5.99;100.00;101683.38;6273356;28;20060;-77
2021/05/20 03:40:44;;;;;;;44.50;18.38;;;;;;;5.96;100.00;101689.53;6273053;28;20049;-77
2021/05/20 03:43:45;;;;;;;34.50;17.00;;;;;;;5.98;100.00;101679.91;6272162;28;20048;-77
2021/05/20 03:46:46;;;;;;;42.20;18.75;;;;;;;5.94;100.00;101685.22;6273395;28;20543;-77
2021/05/20 03:49:47;;;;;;;44.60;20.40;;;;;;;5.99;100.00;101694.66;6273780;28;20423;-78
2021/05/20 03:52:48;;;;;;;53.60;19.77;;;;;;;6.04;100.00;101705.00;6273967;28;20095;-77
2021/05/20 03:55:49;;;;;;;49.47;19.88;;;;;;;6.10;100.00;101705.78;6273598;28;20056;-77
2021/05/20 03:58:50;;;;;;;55.78;19.40;;;;;;;6.04;100.00;101713.72;6272849;28;20543;-77
2021/05/20 04:01:51;;;;;;;61.50;21.05;;;;;;;6.04;100.00;101718.94;6273134;28;20515;-77
2021/05/20 04:04:52;;;;;;;101.05;22.38;;;;;;;6.08;100.00;101727.53;6272956;28;20057;-77
2021/05/20 04:07:53;;;;;;;125.00;25.27;;;;;;;6.12;100.00;101724.00;6273937;28;20053;-78
2021/05/20 04:10:55;;;;;;;78.30;24.05;;;;;;;6.17;100.00;101722.16;6273459;28;20055;-77
2021/05/20 04:13:56;;;;;;;58.00;24.20;;;;;;;6.37;100.00;101724.38;6273179;28;20045;-77
2021/05/20 04:16:57;;;;;;;55.08;23.45;;;;;;;6.29;100.00;101726.28;6272187;28;20048;-77
2021/05/20 04:19:58;;;;;;;66.63;24.13;;;;;;;6.15;100.00;101723.09;6272776;28;20053;-78
2021/05/20 04:22:59;;;;;;;77.15;25.15;;;;;;;6.14;100.00;101721.38;6272299;28;20045;-78
2021/05/20 04:26:01;;;;;;;122.35;24.90;;;;;;;6.15;100.00;101721.34;6272746;28;20049;-77
2021/05/20 04:29:02;;;;;;;81.85;23.35;;;;;;;6.18;100.00;101728.25;6272712;28;20057;-77
2021/05/20 04:32:03;;;;;;;59.05;23.92;;;;;;;6.26;100.00;101724.59;6272264;28;20056;-77
2021/05/20 04:35:05;;;;;;;85.22;25.65;;;;;;;6.37;100.00;101732.22;6272451;28;20106;-77
2021/05/20 04:38:07;;;;;;;80.28;25.95;;;;;;;6.27;100.00;101728.94;6272905;28;20480;-78
2021/05/20 04:41:08;;;;;;;55.58;26.35;;;;;;;6.32;100.00;101734.06;6271594;28;20061;-78
2021/05/20 04:44:09;;;;;;;57.47;25.55;;;;;;;6.34;100.00;101740.97;6263538;28;20572;-77
2021/05/20 04:47:10;;;;;;;62.10;25.48;;;;;;;6.39;100.00;101732.19;6259835;28;20380;-78
2021/05/20 04:50:11;;;;;;;50.22;24.30;;;;;;;6.44;100.00;101744.25;6264798;28;20049;-77
2021/05/20 04:53:13;;;;;;;45.35;23.83;;;;;;;6.49;100.00;101745.00;6271584;28;20090;-77
2021/05/20 04:56:14;;;;;;;50.72;24.08;;;;;;;6.50;100.00;101748.50;6266940;28;20041;-77
2021/05/20 04:59:15;;;;;;;67.97;28.23;;;;;;;6.54;100.00;101750.13;6267602;28;20569;-77
2021/05/20 05:02:15;;;;;;;50.40;24.90;;;;;;;6.58;100.00;101747.44;6269743;28;20056;-77
2021/05/20 05:05:16;;;;;;;53.65;24.17;;;;;;;6.65;100.00;101749.94;6276860;28;20125;-77
2021/05/20 05:08:18;;;;;;;48.10;24.15;;;;;;;6.66;100.00;101751.66;6272190;28;20050;-77
2021/05/20 05:11:19;;;;;;;49.22;24.42;;;;;;;6.65;100.00;101753.41;6258621;28;20049;-77
2021/05/20 05:14:20;;;;;;;50.72;24.58;;;;;;;6.74;100.00;101752.34;6252050;28;20072;-77
2021/05/20 05:17:21;;;;;;;48.95;24.85;;;;;;;6.79;100.00;101758.34;6251903;28;20050;-77
2021/05/20 05:20:22;;;;;;;45.28;23.40;;;;;;;6.78;100.00;101757.47;6252597;28;20056;-78
2021/05/20 05:23:24;;;;;;;50.92;24.65;;;;;;;6.82;100.00;101755.66;6252560;28;20072;-77
2021/05/20 05:26:25;;;;;;;56.05;25.65;;;;;;;6.90;100.00;101758.09;6252642;28;20062;-78
2021/05/20 05:29:27;;;;;;;50.95;25.10;;;;;;;6.88;100.00;101767.72;6252083;28;20057;-78
2021/05/20 05:32:28;;;;;;;63.45;25.02;;;;;;;6.91;100.00;101771.16;6264483;28;20134;-77
2021/05/20 05:35:29;;;;;;;48.10;23.38;;;;;;;6.97;100.00;101764.91;6271904;28;20061;-77
2021/05/20 05:38:31;;;;;;;41.30;22.65;;;;;;;6.96;100.00;101756.22;6277070;28;20483;-78
2021/05/20 05:41:31;;;;;;;36.85;21.95;;;;;;;7.16;100.00;101762.75;6277291;28;20491;-77
2021/05/20 05:44:32;;;;;;;41.60;23.38;;;;;;;7.06;100.00;101760.34;6276393;28;20132;-78
2021/05/20 05:47:33;;;;;;;43.13;25.02;;;;;;;7.09;100.00;101769.88;6277264;28;20052;-78
2021/05/20 05:50:34;;;;;;;46.35;24.02;;;;;;;7.15;100.00;101768.88;6276745;28;20128;-78
2021/05/20 05:53:36;;;;;;;46.00;25.70;;;;;;;7.12;100.00;101773.25;6276893;28;20058;-78
2021/05/20 05:56:37;;;;;;;60.42;24.75;;;;;;;7.11;100.00;101775.91;6276494;28;20127;-78
2021/05/20 05:59:38;;;;;;;42.80;25.48;;;;;;;7.10;100.00;101774.22;6274992;28;20056;-77
2021/05/20 06:02:39;;;;;;;59.60;26.10;;;;;;;7.10;100.00;101782.91;6263502;28;20044;-77
2021/05/20 06:05:40;;;;;;;41.45;24.75;;;;;;;7.17;100.00;101777.53;6274080;28;20052;-77
2021/05/20 06:08:42;;;;;;;56.20;26.45;;;;;;;7.30;100.00;101773.75;6274804;28;20488;-77
2021/05/20 06:11:43;;;;;;;44.22;25.02;;;;;;;7.30;100.00;101781.59;6274576;28;20049;-77
2021/05/20 06:14:45;;;;;;;42.38;24.73;;;;;;;7.32;100.00;101780.66;6274844;28;20048;-77
2021/05/20 06:17:46;;;;;;;48.38;25.67;;;;;;;7.25;100.00;101786.91;6275971;28;20053;-77
2021/05/20 06:20:49;;;;;;;36.25;22.38;;;;;;;7.27;100.00;101787.75;6274326;28;20060;-77
2021/05/20 06:23:51;;;;;;;39.83;23.30;;;;;;;7.21;100.00;101787.88;6274672;28;20049;-77
2021/05/20 06:26:52;;;;;;;38.38;22.13;;;;;;;7.33;100.00;101791.97;6274565;28;20049;-78
2021/05/20 06:29:53;;;;;;;33.33;21.63;;;;;;;7.32;100.00;101790.28;6274321;28;20396;-77
2021/05/20 06:32:54;;;;;;;43.35;24.85;;;;;;;7.38;100.00;101787.50;6266151;28;20048;-77
2021/05/20 06:35:55;;;;;;;40.47;26.13;;;;;;;7.45;100.00;101783.88;6274728;28;20048;-79
2021/05/20 06:38:57;;;;;;;44.75;25.73;;;;;;;7.54;100.00;101788.88;6251460;28;20484;-78
2021/05/20 06:41:58;;;;;;;43.58;26.02;;;;;;;7.68;100.00;101795.53;6249938;28;20428;-78
2021/05/20 06:44:59;;;;;;;38.45;24.55;;;;;;;7.87;100.00;101797.63;6262533;28;20049;-78
2021/05/20 06:48:00;;;;;;;41.20;24.33;;;;;;;7.96;100.00;101798.31;6273982;28;20059;-78
2021/05/20 06:51:01;;;;;;;39.92;24.63;;;;;;;7.85;100.00;101788.09;6274358;28;20122;-78
2021/05/20 06:54:03;;;;;;;37.10;23.08;;;;;;;7.95;100.00;101788.72;6274384;28;20488;-77
2021/05/20 06:57:07;;;;;;;33.95;21.65;;;;;;;7.88;100.00;101778.41;6274378;28;20048;-78
2021/05/20 07:00:08;;;;;;;33.78;20.67;;;;;;;8.18;100.00;101790.75;6274489;28;20084;-78
2021/05/20 07:03:16;;;;;;;30.58;18.85;;;;;;;8.00;100.00;101785.09;6274599;28;20136;-77
2021/05/20 07:06:18;;;;;;;28.42;18.92;;;;;;;8.07;100.00;101784.03;6274211;28;20053;-78
2021/05/20 07:09:20;;;;;;;27.52;18.88;;;;;;;8.21;100.00;101786.28;6274488;28;20056;-77
2021/05/20 07:12:21;;;;;;;30.98;18.85;;;;;;;8.37;100.00;101781.53;6268805;28;20044;-78
2021/05/20 07:15:22;;;;;;;32.08;20.05;;;;;;;8.50;100.00;101788.16;6272853;28;20044;-78
2021/05/20 07:18:23;;;;;;;30.55;21.23;;;;;;;8.49;100.00;101783.78;6272156;28;20053;-79
2021/05/20 07:21:23;;;;;;;28.02;18.50;;;;;;;8.49;100.00;101798.66;6273362;28;20079;-78
2021/05/20 07:24:25;;;;;;;30.58;20.45;;;;;;;8.43;100.00;101794.44;6273000;28;20041;-77
2021/05/20 07:27:26;;;;;;;29.50;19.90;;;;;;;8.47;100.00;101783.00;6273381;28;20142;-78
2021/05/20 07:30:27;;;;;;;33.17;19.65;;;;;;;8.53;100.00;101782.81;6273570;28;20049;-79
2021/05/20 07:33:30;;;;;;;29.95;20.17;;;;;;;8.63;100.00;101788.69;6273011;28;20049;-78
2021/05/20 07:36:31;;;;;;;33.50;21.38;;;;;;;8.71;100.00;101791.06;6276336;28;20060;-79
2021/05/20 07:39:32;;;;;;;26.92;18.80;;;;;;;8.76;100.00;101791.78;6280480;28;20510;-78
2021/05/20 07:42:33;;;;;;;31.10;20.65;;;;;;;9.12;100.00;101784.56;6250855;28;20071;-78
2021/05/20 07:45:34;;;;;;;23.30;17.63;;;;;;;9.02;100.00;101783.16;6258884;28;20041;-79
2021/05/20 07:48:35;;;;;;;26.63;19.17;;;;;;;9.09;100.00;101782.94;6280416;28;20128;-79
2021/05/20 07:51:36;;;;;;;28.70;18.90;;;;;;;9.23;100.00;101786.88;6277405;28;20049;-79
2021/05/20 07:54:38;;;;;;;25.38;17.63;;;;;;;9.36;100.00;101785.59;6273488;28;20045;-79
2021/05/20 07:57:39;;;;;;;30.35;18.92;;;;;;;9.59;100.00;101785.72;6280263;28;20045;-79
2021/05/20 08:00:40;;;;;;;25.52;16.73;;;;;;;9.73;100.00;101776.53;6277547;28;20094;-79
2021/05/20 08:03:44;;;;;;;22.85;17.52;;;;;;;9.65;100.00;101780.25;6278994;28;20045;-79
2021/05/20 08:06:50;;;;;;;29.38;19.50;;;;;;;9.58;100.00;101780.50;6278545;28;20048;-79
2021/05/20 08:10:05;;;;;;;29.73;18.80;;;;;;;9.59;100.00;101782.25;6278006;28;20415;-78
2021/05/20 08:13:06;;;;;;;30.92;19.13;;;;;;;9.59;100.00;101777.00;6274915;28;20078;-79
2021/05/20 08:16:07;;;;;;;37.05;19.98;;;;;;;9.88;100.00;101787.38;6260801;28;20127;-78
2021/05/20 08:19:09;;;;;;;32.03;19.35;;;;;;;9.81;100.00;101778.00;6249085;28;20492;-78
2021/05/20 08:22:09;;;;;;;30.58;19.38;;;;;;;9.94;100.00;101770.53;6248256;28;20049;-78
2021/05/20 08:25:12;;;;;;;29.35;19.73;;;;;;;10.17;100.00;101775.00;6248864;28;20050;-79
2021/05/20 08:28:13;;;;;;;26.98;19.42;;;;;;;10.14;100.00;101768.09;6248923;28;20054;-78
2021/05/20 08:31:14;;;;;;;34.90;19.77;;;;;;;10.24;100.00;101765.13;6251573;28;20053;-78
2021/05/20 08:34:15;;;;;;;30.83;20.65;;;;;;;10.50;100.00;101754.59;6251850;28;20041;-79
2021/05/20 08:37:16;;;;;;;27.38;18.98;;;;;;;10.54;100.00;101760.59;6252024;28;20057;-78
2021/05/20 08:40:18;;;;;;;30.63;19.20;;;;;;;10.54;100.00;101760.59;6251621;28;20045;-79
2021/05/20 08:43:19;;;;;;;27.60;17.35;;;;;;;10.56;100.00;101749.09;6252536;28;20053;-79
2021/05/20 08:46:24;;;;;;;29.60;17.73;;;;;;;10.67;99.21;101751.31;6267136;28;20055;-78
2021/05/20 08:49:26;;;;;;;25.13;16.58;;;;;;;10.81;97.67;101751.66;6268736;28;20056;-79
2021/05/20 08:52:36;;;;;;;23.70;17.08;;;;;;;11.04;98.21;101748.16;6267485;28;20044;-79
2021/05/20 08:55:45;;;;;;;18.73;13.95;;;;;;;11.19;94.79;101738.78;6273202;28;20048;-78
2021/05/20 08:58:45;;;;;;;22.13;13.18;;;;;;;11.25;91.19;101741.16;6277389;28;20067;-79
2021/05/20 09:01:51;;;;;;;21.38;13.73;;;;;;;11.75;91.92;101740.84;6277438;28;20069;-78
2021/05/20 09:05:00;;;;;;;25.25;14.07;;;;;;;11.80;88.91;101738.03;6276646;28;20049;-79
2021/05/20 09:08:04;;;;;;;25.02;14.20;;;;;;;11.63;91.61;101738.75;6277083;28;20056;-79
2021/05/20 09:11:05;;;;;;;20.30;13.43;;;;;;;11.61;92.26;101745.84;6275146;28;20144;-79
2021/05/20 09:14:06;;;;;;;23.40;14.00;;;;;;;11.75;93.28;101734.72;6275870;28;20048;-79
2021/05/20 09:17:09;;;;;;;17.75;13.07;;;;;;;11.92;90.59;101734.91;6276635;28;20451;-79
2021/05/20 09:20:11;;;;;;;15.25;11.50;;;;;;;12.03;88.59;101734.44;6268518;28;20049;-79
2021/05/20 09:23:13;;;;;;;16.98;12.27;;;;;;;12.35;87.15;101733.00;6252521;28;20056;-80
2021/05/20 09:26:16;;;;;;;13.07;8.45;;;;;;;12.50;80.42;101729.69;6251519;28;20456;-79
2021/05/20 09:29:17;;;;;;;9.45;6.78;;;;;;;12.66;77.69;101728.03;6251594;28;20103;-78
2021/05/20 09:32:17;;;;;;;9.68;7.28;;;;;;;12.52;78.04;101727.84;6250912;28;20516;-80
2021/05/20 09:35:20;;;;;;;11.48;8.10;;;;;;;12.49;81.97;101729.75;6252872;28;20057;-79
2021/05/20 09:38:23;;;;;;;13.73;7.68;;;;;;;12.25;80.10;101723.81;6276524;28;20091;-79
2021/05/20 09:41:24;;;;;;;10.35;7.45;;;;;;;12.05;78.87;101727.34;6274492;28;20049;-79
2021/05/20 09:44:35;;;;;;;10.93;7.85;;;;;;;12.24;80.31;101725.59;6274674;28;20048;-79
2021/05/20 09:47:37;;;;;;;12.32;7.28;;;;;;;11.96;80.31;101741.75;6271577;28;20041;-79
2021/05/20 09:50:40;;;;;;;18.42;8.05;;;;;;;11.54;85.16;101732.09;6264049;28;20048;-77
2021/05/20 09:53:46;;;;;;;9.73;6.47;;;;;;;10.98;88.28;101743.09;6256708;28;20046;-78
2021/05/20 09:56:47;;;;;;;8.77;5.93;;;;;;;10.90;84.70;101730.28;6272170;28;20048;-78
2021/05/20 09:59:59;;;;;;;11.88;6.40;;;;;;;10.81;90.03;101725.38;6275975;28;20455;-79
2021/05/20 10:03:02;;;;;;;9.23;5.88;;;;;;;10.80;87.35;101733.31;6273773;28;20117;-78
2021/05/20 10:06:04;;;;;;;10.10;6.43;;;;;;;11.00;90.93;101724.66;6257298;28;20060;-77
2021/05/20 10:09:08;;;;;;;14.98;8.70;;;;;;;11.04;90.72;101731.50;6249042;28;20054;-77
2021/05/20 10:12:10;;;;;;;11.90;8.88;;;;;;;11.25;89.04;101724.53;6250767;28;20049;-78
2021/05/20 10:15:15;;;;;;;15.00;9.13;;;;;;;11.60;88.23;101718.66;6253815;28;20048;-78
2021/05/20 10:18:18;;;;;;;14.43;9.13;;;;;;;11.56;87.08;101708.31;6266104;28;20049;-77
2021/05/20 10:21:19;;;;;;;14.50;8.70;;;;;;;11.68;85.72;101713.94;6273094;28;20059;-76
2021/05/20 10:24:20;;;;;;;10.98;7.70;;;;;;;11.92;82.71;101705.94;6273254;28;20054;-78
2021/05/20 10:27:22;;;;;;;10.70;7.03;;;;;;;11.97;80.12;101713.63;6273898;28;20056;-76
2021/05/20 10:30:24;;;;;;;12.27;7.43;;;;;;;12.26;79.93;101709.69;6273719;28;20053;-78
2021/05/20 10:33:27;;;;;;;13.82;8.90;;;;;;;12.27;81.72;101699.09;6261439;28;20137;-78
2021/05/20 10:36:29;;;;;;;10.82;7.88;;;;;;;12.29;84.66;101685.84;6247425;28;20050;-78
2021/05/20 10:39:30;;;;;;;10.07;7.55;;;;;;;12.60;86.04;101688.78;6247729;28;20176;-79
2021/05/20 10:42:42;;;;;;;9.27;5.97;;;;;;;12.61;78.58;101674.66;6248931;28;20050;-79
2021/05/20 10:45:59;;;;;;;9.77;6.10;;;;;;;12.81;76.11;101673.75;6248820;28;20566;-78
2021/05/20 10:49:01;;;;;;;6.47;3.95;;;;;;;12.94;73.25;101677.50;6256322;28;20136;-77
2021/05/20 10:52:01;;;;;;;4.03;2.63;;;;;;;12.95;66.75;101666.00;6266662;28;20099;-78
2021/05/20 10:55:05;;;;;;;3.90;2.13;;;;;;;13.17;68.10;101668.47;6273672;28;20084;-78
2021/05/20 10:58:06;;;;;;;8.25;2.70;;;;;;;13.28;62.83;101653.91;6272874;28;20056;-76
2021/05/20 11:01:30;;;;;;;7.57;3.25;;;;;;;13.45;66.37;101651.28;6272955;28;20663;-78
2021/05/20 11:04:38;;;;;;;5.40;3.03;;;;;;;13.74;66.35;101648.91;6272817;28;20048;-80
2021/05/20 11:07:39;;;;;;;3.55;2.80;;;;;;;13.85;63.59;101642.13;6273555;28;20056;-77
2021/05/20 11:10:40;;;;;;;5.45;2.88;;;;;;;14.14;65.54;101639.72;6272298;28;20049;-78
2021/05/20 11:13:45;;;;;;;2.75;1.80;;;;;;;14.28;63.45;101633.69;6273278;28;20045;-79
2021/05/20 11:16:46;;;;;;;3.72;1.77;;;;;;;13.96;61.75;101631.84;6273074;28;20047;-75
2021/05/20 11:19:47;;;;;;;2.95;1.50;;;;;;;13.95;59.31;101634.56;6266136;28;20042;-74
2021/05/20 11:23:21;;;;;;;3.42;1.50;;;;;;;13.54;58.36;101634.94;6248018;28;20045;-77
2021/05/20 11:26:25;;;;;;;3.30;1.85;;;;;;;13.29;61.17;101627.41;6247674;28;20459;-77
2021/05/20 11:29:28;;;;;;;2.85;1.50;;;;;;;13.35;63.31;101631.53;6247794;28;20132;-77
2021/05/20 11:32:30;;;;;;;2.80;1.90;;;;;;;14.00;63.13;101629.03;6247317;28;20046;-78
2021/05/20 11:35:34;;;;;;;4.20;1.88;;;;;;;14.13;63.39;101624.81;6258553;28;20051;-78
2021/05/20 11:38:35;;;;;;;4.25;2.53;;;;;;;13.90;63.33;101628.69;6272175;28;20060;-77
2021/05/20 11:41:39;;;;;;;3.20;2.30;;;;;;;13.59;62.73;101629.44;6271631;28;20583;-77
2021/05/20 11:44:39;;;;;;;4.07;2.30;;;;;;;13.47;66.30;101637.97;6271726;28;20041;-76
2021/05/20 11:47:40;;;;;;;6.00;2.85;;;;;;;13.38;63.80;101640.16;6271689;28;20059;-76
2021/05/20 11:50:49;;;;;;;4.88;2.60;;;;;;;13.27;65.93;101631.94;6271446;28;20415;-76
2021/05/20 11:54:03;;;;;;;6.78;2.88;;;;;;;13.29;66.10;101629.19;6271114;28;20056;-76
2021/05/20 11:57:06;;;;;;;5.63;3.20;;;;;;;13.74;66.62;101625.13;6271390;28;20419;-75
2021/05/20 12:00:08;;;;;;;6.55;3.33;;;;;;;14.11;64.13;101622.22;6271205;28;20053;-76
2021/05/20 12:03:09;;;;;;;6.85;3.88;;;;;;;14.86;64.01;101607.50;6268624;28;20056;-76
2021/05/20 12:06:11;;;;;;;5.32;3.25;;;;;;;15.63;56.20;101609.13;6262016;28;20492;-77
2021/05/20 12:09:14;;;;;;;4.78;2.65;;;;;;;15.91;55.66;101607.47;6271274;28;20171;-76
2021/05/20 12:12:16;;;;;;;3.90;2.10;;;;;;;15.92;56.44;101601.22;6276298;28;20588;-77
2021/05/20 12:15:19;;;;;;;3.10;2.22;;;;;;;15.40;57.79;101599.91;6276916;28;20561;-76
2021/05/20 12:18:21;;;;;;;4.00;2.00;;;;;;;14.87;56.94;101589.81;6276129;28;20052;-78
2021/05/20 12:21:23;;;;;;;4.57;2.30;;;;;;;14.36;59.31;101591.81;6261435;28;20060;-73
2021/05/20 12:24:29;;;;;;;4.47;2.30;;;;;;;14.32;61.54;101588.47;6251091;28;20045;-76
2021/05/20 12:27:41;;;;;;;5.88;3.15;;;;;;;14.19;62.13;101585.66;6251664;28;20128;-76
2021/05/20 12:30:42;;;;;;;5.10;3.10;;;;;;;14.35;61.71;101588.31;6251632;28;20149;-75
2021/05/20 12:33:46;;;;;;;10.80;3.25;;;;;;;14.49;60.91;101581.41;6259071;28;20040;-76
2021/05/20 12:36:47;;;;;;;4.90;3.03;;;;;;;14.24;63.40;101585.41;6271390;28;20053;-75
2021/05/20 12:39:48;;;;;;;6.28;2.65;;;;;;;14.86;64.50;101577.53;6269016;28;20053;-75
2021/05/20 12:43:12;;;;;;;4.53;2.78;;;;;;;15.08;63.97;101574.47;6271808;28;20519;-73
2021/05/20 12:46:14;;;;;;;4.47;2.75;;;;;;;16.02;60.44;101567.00;6275215;28;20056;-76
2021/05/20 12:49:19;;;;;;;3.45;2.22;;;;;;;16.78;55.60;101556.78;6274772;28;20509;-76
2021/05/20 12:52:21;;;;;;;7.13;2.75;;;;;;;16.69;51.80;101555.56;6275645;28;20060;-76
2021/05/20 12:55:36;;;;;;;4.80;3.28;;;;;;;16.52;54.72;101547.84;6275577;28;20049;-76
2021/05/20 12:58:51;;;;;;;6.72;2.63;;;;;;;17.03;54.69;101553.31;6275282;28;20048;-75
2021/05/20 13:01:53;;;;;;;2.33;1.70;;;;;;;17.48;47.72;101551.13;6275915;28;20111;-77
2021/05/20 13:05:05;;;;;;;4.72;2.80;;;;;;;17.48;46.13;101548.47;6275891;28;20048;-76
2021/05/20 13:08:25;;;;;;;3.97;2.70;;;;;;;17.16;48.29;101554.19;6275751;28;20110;-77
2021/05/20 13:11:28;;;;;;;4.50;3.13;;;;;;;17.60;52.06;101544.97;6275534;28;20045;-76
2021/05/20 13:14:34;;;;;;;4.72;2.88;;;;;;;17.24;47.75;101538.59;6275533;28;20049;-76
2021/05/20 13:17:52;;;;;;;4.68;3.10;;;;;;;16.54;50.84;101542.47;6274987;28;20053;-77
2021/05/20 13:24:19;;;;;;;4.28;2.30;;;;;;;17.49;47.64;101528.94;6275093;28;20076;-76
2021/05/20 13:27:21;;;;;;;5.77;2.77;;;;;;;18.03;46.05;101519.81;6275027;28;20059;-77
2021/05/20 13:30:32;;;;;;;4.25;2.45;;;;;;;17.33;47.71;101522.97;6274922;28;20053;-77
2021/05/20 13:33:35;;;;;;;4.75;2.88;;;;;;;16.99;49.36;101518.19;6274790;28;20130;-77
2021/05/20 13:36:36;;;;;;;5.15;3.13;;;;;;;16.60;51.12;101512.84;6275562;28;20045;-76
2021/05/20 13:39:37;;;;;;;4.57;3.05;;;;;;;17.04;51.35;101512.56;6275329;28;20152;-76
2021/05/20 13:42:38;;;;;;;4.88;2.70;;;;;;;17.24;51.09;101520.00;6275339;28;20438;-77
2021/05/20 13:45:39;;;;;;;6.63;3.28;;;;;;;16.81;51.68;101508.81;6274494;28;20102;-76
2021/05/20 13:48:40;;;;;;;7.82;2.97;;;;;;;17.23;55.71;101507.66;6273373;28;20052;-76
2021/05/20 13:51:41;;;;;;;8.82;2.78;;;;;;;17.97;48.25;101494.50;6269709;28;20415;-76
2021/05/20 13:54:43;;;;;;;3.30;2.50;;;;;;;18.12;48.55;101495.19;6249172;28;20202;-76
2021/05/20 13:57:45;;;;;;;6.82;2.47;;;;;;;18.18;46.81;101487.63;6249567;28;20397;-77